Terminal Aerodrome Forecast
Issued by NWS Pittsburgh, PA

Current Version | Previous Version | Graphics & Text | Print | Product List | Glossary On
Versions: 1 2 3 4 5 6 7 8 9 10 11 12 13 14 15 16 17 18 19 20 21 22 23 24 25 26 27 28 29 30 31 32 33 34 35 36 37 38 39
000
FTUS41 KPBZ 282043 AAB
TAFPIT
TAF AMD
KPIT 282043Z 2821/2924 03005KT 2SM -DZ BR OVC003
     FM282200 04005KT P6SM BKN015
     FM290200 33005KT P6SM OVC008
     FM291700 28005KT P6SM BKN015
     FM292100 29005KT P6SM BKN025=

USA.gov is the U.S. government's official web portal to all federal, state and local government web resources and services.